sensor_id;sensor_type;location;lat;lon;timestamp;pressure;altitude;pressure_sealevel;temperature;humidity
12247;BME280;6186;52.022;4.692;2022-08-20T00:00:46;101636.94;;;21.21;100.00
12247;BME280;6186;52.022;4.692;2022-08-20T00:03:16;101632.44;;;21.21;100.00
12247;BME280;6186;52.022;4.692;2022-08-20T00:05:48;101635.97;;;21.22;100.00
12247;BME280;6186;52.022;4.692;2022-08-20T00:08:16;101638.59;;;21.23;100.00
12247;BME280;6186;52.022;4.692;2022-08-20T00:10:44;101647.47;;;21.24;100.00
12247;BME280;6186;52.022;4.692;2022-08-20T00:13:14;101640.28;;;21.24;100.00
12247;BME280;6186;52.022;4.692;2022-08-20T00:15:40;101637.72;;;21.23;100.00
12247;BME280;6186;52.022;4.692;2022-08-20T00:18:06;101645.56;;;21.26;100.00
12247;BME280;6186;52.022;4.692;2022-08-20T00:20:38;101633.03;;;21.26;100.00
12247;BME280;6186;52.022;4.692;2022-08-20T00:23:04;101639.28;;;21.27;100.00
12247;BME280;6186;52.022;4.692;2022-08-20T00:25:30;101637.44;;;21.27;100.00
12247;BME280;6186;52.022;4.692;2022-08-20T00:27:57;101643.94;;;21.23;100.00
12247;BME280;6186;52.022;4.692;2022-08-20T00:30:24;101650.91;;;21.26;100.00
12247;BME280;6186;52.022;4.692;2022-08-20T00:32:57;101652.72;;;21.25;100.00
12247;BME280;6186;52.022;4.692;2022-08-20T00:35:27;101648.53;;;21.21;100.00
12247;BME280;6186;52.022;4.692;2022-08-20T00:37:53;101644.19;;;21.19;100.00
12247;BME280;6186;52.022;4.692;2022-08-20T00:40:23;101650.22;;;21.22;100.00
12247;BME280;6186;52.022;4.692;2022-08-20T00:42:51;101649.31;;;21.23;100.00
12247;BME280;6186;52.022;4.692;2022-08-20T00:45:19;101653.78;;;21.23;100.00
12247;BME280;6186;52.022;4.692;2022-08-20T00:47:45;101656.56;;;21.21;100.00
12247;BME280;6186;52.022;4.692;2022-08-20T00:50:22;101652.13;;;21.20;100.00
12247;BME280;6186;52.022;4.692;2022-08-20T00:52:49;101649.44;;;21.20;100.00
12247;BME280;6186;52.022;4.692;2022-08-20T00:55:17;101642.63;;;21.15;100.00
12247;BME280;6186;52.022;4.692;2022-08-20T00:57:47;101648.06;;;21.13;100.00
12247;BME280;6186;52.022;4.692;2022-08-20T01:00:17;101649.28;;;21.08;100.00
12247;BME280;6186;52.022;4.692;2022-08-20T01:02:43;101655.19;;;20.97;100.00
12247;BME280;6186;52.022;4.692;2022-08-20T01:05:10;101649.31;;;20.91;100.00
12247;BME280;6186;52.022;4.692;2022-08-20T01:07:36;101651.38;;;20.86;100.00
12247;BME280;6186;52.022;4.692;2022-08-20T01:10:09;101650.59;;;20.84;100.00
12247;BME280;6186;52.022;4.692;2022-08-20T01:12:37;101650.59;;;20.84;100.00
12247;BME280;6186;52.022;4.692;2022-08-20T01:15:05;101650.69;;;20.82;100.00
12247;BME280;6186;52.022;4.692;2022-08-20T01:17:34;101649.19;;;20.77;100.00
12247;BME280;6186;52.022;4.692;2022-08-20T01:20:16;101656.44;;;20.75;100.00
12247;BME280;6186;52.022;4.692;2022-08-20T01:23:34;101647.81;;;20.70;100.00
12247;BME280;6186;52.022;4.692;2022-08-20T01:28:27;101656.25;;;20.62;100.00
12247;BME280;6186;52.022;4.692;2022-08-20T01:30:54;101660.72;;;20.61;100.00
12247;BME280;6186;52.022;4.692;2022-08-20T01:33:21;101668.84;;;20.60;100.00
12247;BME280;6186;52.022;4.692;2022-08-20T01:35:47;101664.50;;;20.57;100.00
12247;BME280;6186;52.022;4.692;2022-08-20T01:38:14;101668.75;;;20.61;100.00
12247;BME280;6186;52.022;4.692;2022-08-20T01:43:44;101667.13;;;20.59;100.00
12247;BME280;6186;52.022;4.692;2022-08-20T01:46:10;101674.38;;;20.57;100.00
12247;BME280;6186;52.022;4.692;2022-08-20T01:48:38;101666.75;;;20.49;100.00
12247;BME280;6186;52.022;4.692;2022-08-20T01:51:18;101666.81;;;20.48;100.00
12247;BME280;6186;52.022;4.692;2022-08-20T01:53:49;101668.69;;;20.46;100.00
12247;BME280;6186;52.022;4.692;2022-08-20T01:56:18;101674.31;;;20.41;100.00
12247;BME280;6186;52.022;4.692;2022-08-20T01:58:47;101678.25;;;20.34;100.00
12247;BME280;6186;52.022;4.692;2022-08-20T02:01:26;101679.41;;;20.29;100.00
12247;BME280;6186;52.022;4.692;2022-08-20T02:03:52;101677.94;;;20.23;100.00
12247;BME280;6186;52.022;4.692;2022-08-20T02:06:19;101679.03;;;20.19;100.00
12247;BME280;6186;52.022;4.692;2022-08-20T02:08:49;101688.16;;;20.15;100.00
12247;BME280;6186;52.022;4.692;2022-08-20T02:11:15;101686.41;;;20.14;100.00
12247;BME280;6186;52.022;4.692;2022-08-20T02:13:40;101674.28;;;20.07;100.00
12247;BME280;6186;52.022;4.692;2022-08-20T02:16:06;101684.81;;;20.10;100.00
12247;BME280;6186;52.022;4.692;2022-08-20T02:18:31;101681.34;;;20.08;100.00
12247;BME280;6186;52.022;4.692;2022-08-20T02:20:57;101687.75;;;20.06;100.00
12247;BME280;6186;52.022;4.692;2022-08-20T02:23:23;101686.09;;;20.03;100.00
12247;BME280;6186;52.022;4.692;2022-08-20T02:25:48;101688.13;;;19.98;100.00
12247;BME280;6186;52.022;4.692;2022-08-20T02:28:16;101690.94;;;19.95;100.00
12247;BME280;6186;52.022;4.692;2022-08-20T02:30:46;101687.47;;;19.93;100.00
12247;BME280;6186;52.022;4.692;2022-08-20T02:33:14;101682.31;;;19.90;100.00
12247;BME280;6186;52.022;4.692;2022-08-20T02:35:41;101679.63;;;19.90;100.00
12247;BME280;6186;52.022;4.692;2022-08-20T02:38:09;101681.50;;;19.88;100.00
12247;BME280;6186;52.022;4.692;2022-08-20T02:40:34;101687.78;;;19.87;100.00
12247;BME280;6186;52.022;4.692;2022-08-20T02:43:01;101680.09;;;19.81;100.00
12247;BME280;6186;52.022;4.692;2022-08-20T02:45:29;101680.94;;;19.82;100.00
12247;BME280;6186;52.022;4.692;2022-08-20T02:47:55;101683.69;;;19.80;100.00
12247;BME280;6186;52.022;4.692;2022-08-20T02:50:24;101685.56;;;19.78;100.00
12247;BME280;6186;52.022;4.692;2022-08-20T02:52:50;101686.53;;;19.77;100.00
12247;BME280;6186;52.022;4.692;2022-08-20T02:55:16;101683.00;;;19.77;100.00
12247;BME280;6186;52.022;4.692;2022-08-20T02:57:42;101685.81;;;19.74;100.00
12247;BME280;6186;52.022;4.692;2022-08-20T03:00:12;101666.47;;;19.68;100.00
12247;BME280;6186;52.022;4.692;2022-08-20T03:02:41;101682.28;;;19.73;100.00
12247;BME280;6186;52.022;4.692;2022-08-20T03:05:07;101678.81;;;19.71;100.00
12247;BME280;6186;52.022;4.692;2022-08-20T03:07:49;101693.13;;;19.70;100.00
12247;BME280;6186;52.022;4.692;2022-08-20T03:10:16;101694.13;;;19.67;100.00
12247;BME280;6186;52.022;4.692;2022-08-20T03:12:41;101695.22;;;19.63;100.00
12247;BME280;6186;52.022;4.692;2022-08-20T03:15:08;101690.03;;;19.60;100.00
12247;BME280;6186;52.022;4.692;2022-08-20T03:17:54;101692.84;;;19.57;100.00
12247;BME280;6186;52.022;4.692;2022-08-20T03:20:20;101681.44;;;19.54;100.00
12247;BME280;6186;52.022;4.692;2022-08-20T03:22:46;101690.47;;;19.51;100.00
12247;BME280;6186;52.022;4.692;2022-08-20T03:25:13;101694.22;;;19.47;100.00
12247;BME280;6186;52.022;4.692;2022-08-20T03:27:39;101698.72;;;19.47;100.00
12247;BME280;6186;52.022;4.692;2022-08-20T03:30:06;101695.34;;;19.43;100.00
12247;BME280;6186;52.022;4.692;2022-08-20T03:32:32;101694.66;;;19.38;100.00
12247;BME280;6186;52.022;4.692;2022-08-20T03:34:57;101702.59;;;19.40;100.00
12247;BME280;6186;52.022;4.692;2022-08-20T03:37:28;101701.03;;;19.36;100.00
12247;BME280;6186;52.022;4.692;2022-08-20T03:39:53;101694.97;;;19.32;100.00
12247;BME280;6186;52.022;4.692;2022-08-20T03:42:18;101696.84;;;19.30;100.00
12247;BME280;6186;52.022;4.692;2022-08-20T03:44:44;101688.06;;;19.27;100.00
12247;BME280;6186;52.022;4.692;2022-08-20T03:47:09;101696.16;;;19.25;100.00
12247;BME280;6186;52.022;4.692;2022-08-20T03:49:35;101704.25;;;19.24;100.00
12247;BME280;6186;52.022;4.692;2022-08-20T03:52:09;101704.31;;;19.22;100.00
12247;BME280;6186;52.022;4.692;2022-08-20T03:54:37;101706.13;;;19.22;100.00
12247;BME280;6186;52.022;4.692;2022-08-20T03:57:03;101701.75;;;19.21;100.00
12247;BME280;6186;52.022;4.692;2022-08-20T03:59:29;101694.81;;;19.17;100.00
12247;BME280;6186;52.022;4.692;2022-08-20T04:01:57;101698.41;;;19.16;100.00
12247;BME280;6186;52.022;4.692;2022-08-20T04:04:23;101692.19;;;19.15;100.00
12247;BME280;6186;52.022;4.692;2022-08-20T04:06:48;101697.47;;;19.17;100.00
12247;BME280;6186;52.022;4.692;2022-08-20T04:09:14;101691.47;;;19.12;100.00
12247;BME280;6186;52.022;4.692;2022-08-20T04:11:40;101702.13;;;19.12;100.00
12247;BME280;6186;52.022;4.692;2022-08-20T04:14:06;101695.22;;;19.08;100.00
12247;BME280;6186;52.022;4.692;2022-08-20T04:16:31;101705.16;;;19.04;100.00
12247;BME280;6186;52.022;4.692;2022-08-20T04:18:57;101708.91;;;19.00;100.00
12247;BME280;6186;52.022;4.692;2022-08-20T04:21:23;101710.94;;;18.95;100.00
12247;BME280;6186;52.022;4.692;2022-08-20T04:23:48;101719.13;;;18.91;100.00
12247;BME280;6186;52.022;4.692;2022-08-20T04:26:13;101713.09;;;18.87;100.00
12247;BME280;6186;52.022;4.692;2022-08-20T04:28:40;101722.13;;;18.85;100.00
12247;BME280;6186;52.022;4.692;2022-08-20T04:31:05;101718.75;;;18.79;100.00
12247;BME280;6186;52.022;4.692;2022-08-20T04:33:31;101716.16;;;18.78;100.00
12247;BME280;6186;52.022;4.692;2022-08-20T04:35:57;101711.91;;;18.74;100.00
12247;BME280;6186;52.022;4.692;2022-08-20T04:38:25;101716.44;;;18.72;100.00
12247;BME280;6186;52.022;4.692;2022-08-20T04:40:51;101713.19;;;18.65;100.00
12247;BME280;6186;52.022;4.692;2022-08-20T04:43:26;101718.47;;;18.67;100.00
12247;BME280;6186;52.022;4.692;2022-08-20T04:45:53;101719.59;;;18.61;100.00
12247;BME280;6186;52.022;4.692;2022-08-20T04:48:20;101730.38;;;18.58;100.00
12247;BME280;6186;52.022;4.692;2022-08-20T04:50:49;101733.84;;;18.60;100.00
12247;BME280;6186;52.022;4.692;2022-08-20T04:53:16;101738.38;;;18.58;100.00
12247;BME280;6186;52.022;4.692;2022-08-20T04:55:43;101742.06;;;18.56;100.00
12247;BME280;6186;52.022;4.692;2022-08-20T04:58:20;101738.59;;;18.54;100.00
12247;BME280;6186;52.022;4.692;2022-08-20T05:00:49;101747.59;;;18.51;100.00
12247;BME280;6186;52.022;4.692;2022-08-20T05:03:15;101744.94;;;18.51;100.00
12247;BME280;6186;52.022;4.692;2022-08-20T05:05:41;101744.13;;;18.49;100.00
12247;BME280;6186;52.022;4.692;2022-08-20T05:08:07;101752.94;;;18.51;100.00
12247;BME280;6186;52.022;4.692;2022-08-20T05:10:33;101754.78;;;18.49;100.00
12247;BME280;6186;52.022;4.692;2022-08-20T05:13:00;101749.53;;;18.48;100.00
12247;BME280;6186;52.022;4.692;2022-08-20T05:15:26;101744.50;;;18.40;100.00
12247;BME280;6186;52.022;4.692;2022-08-20T05:17:57;101748.09;;;18.39;100.00
12247;BME280;6186;52.022;4.692;2022-08-20T05:20:25;101759.56;;;18.41;100.00
12247;BME280;6186;52.022;4.692;2022-08-20T05:22:52;101761.31;;;18.42;100.00
12247;BME280;6186;52.022;4.692;2022-08-20T05:25:20;101761.31;;;18.42;100.00
12247;BME280;6186;52.022;4.692;2022-08-20T05:27:46;101763.13;;;18.42;100.00
12247;BME280;6186;52.022;4.692;2022-08-20T05:30:11;101770.22;;;18.43;100.00
12247;BME280;6186;52.022;4.692;2022-08-20T05:32:37;101767.47;;;18.44;100.00
12247;BME280;6186;52.022;4.692;2022-08-20T05:35:06;101775.31;;;18.47;100.00
12247;BME280;6186;52.022;4.692;2022-08-20T05:37:37;101769.06;;;18.48;100.00
12247;BME280;6186;52.022;4.692;2022-08-20T05:40:08;101770.94;;;18.46;100.00
12247;BME280;6186;52.022;4.692;2022-08-20T05:42:34;101772.63;;;18.49;100.00
12247;BME280;6186;52.022;4.692;2022-08-20T05:45:00;101770.78;;;18.49;100.00
12247;BME280;6186;52.022;4.692;2022-08-20T05:47:26;101779.59;;;18.51;100.00
12247;BME280;6186;52.022;4.692;2022-08-20T05:49:52;101784.06;;;18.51;100.00
12247;BME280;6186;52.022;4.692;2022-08-20T05:52:17;101788.41;;;18.53;100.00
12247;BME280;6186;52.022;4.692;2022-08-20T05:54:43;101789.28;;;18.54;100.00
12247;BME280;6186;52.022;4.692;2022-08-20T05:57:08;101786.53;;;18.55;100.00
12247;BME280;6186;52.022;4.692;2022-08-20T05:59:33;101788.28;;;18.56;100.00
12247;BME280;6186;52.022;4.692;2022-08-20T06:02:00;101778.59;;;18.54;100.00
12247;BME280;6186;52.022;4.692;2022-08-20T06:04:26;101782.81;;;18.59;100.00
12247;BME280;6186;52.022;4.692;2022-08-20T06:07:01;101794.28;;;18.61;100.00
12247;BME280;6186;52.022;4.692;2022-08-20T06:09:27;101785.28;;;18.64;100.00
12247;BME280;6186;52.022;4.692;2022-08-20T06:11:53;101794.94;;;18.66;100.00
12247;BME280;6186;52.022;4.692;2022-08-20T06:14:18;101794.81;;;18.69;100.00
12247;BME280;6186;52.022;4.692;2022-08-20T06:16:44;101789.41;;;18.71;100.00
12247;BME280;6186;52.022;4.692;2022-08-20T06:19:10;101783.19;;;18.70;100.00
12247;BME280;6186;52.022;4.692;2022-08-20T06:21:36;101786.59;;;18.74;100.00
12247;BME280;6186;52.022;4.692;2022-08-20T06:24:01;101773.59;;;18.66;100.00
12247;BME280;6186;52.022;4.692;2022-08-20T06:26:27;101789.00;;;18.80;100.00
12247;BME280;6186;52.022;4.692;2022-08-20T06:28:52;101792.53;;;18.81;100.00
12247;BME280;6186;52.022;4.692;2022-08-20T06:31:18;101788.94;;;18.82;100.00
12247;BME280;6186;52.022;4.692;2022-08-20T06:33:49;101794.25;;;18.82;100.00
12247;BME280;6186;52.022;4.692;2022-08-20T06:36:14;101784.47;;;18.82;100.00
12247;BME280;6186;52.022;4.692;2022-08-20T06:38:40;101790.69;;;18.83;100.00
12247;BME280;6186;52.022;4.692;2022-08-20T06:41:05;101787.22;;;18.81;100.00
12247;BME280;6186;52.022;4.692;2022-08-20T06:43:32;101797.63;;;18.87;100.00
12247;BME280;6186;52.022;4.692;2022-08-20T06:45:58;101800.94;;;18.92;100.00
12247;BME280;6186;52.022;4.692;2022-08-20T06:48:25;101791.06;;;18.94;100.00
12247;BME280;6186;52.022;4.692;2022-08-20T06:50:51;101800.78;;;18.95;100.00
12247;BME280;6186;52.022;4.692;2022-08-20T06:53:19;101791.25;;;18.89;100.00
12247;BME280;6186;52.022;4.692;2022-08-20T06:55:48;101797.19;;;18.96;100.00
12247;BME280;6186;52.022;4.692;2022-08-20T06:58:14;101804.00;;;19.03;100.00
12247;BME280;6186;52.022;4.692;2022-08-20T07:00:42;101795.25;;;18.99;100.00
12247;BME280;6186;52.022;4.692;2022-08-20T07:03:08;101809.41;;;19.01;100.00
12247;BME280;6186;52.022;4.692;2022-08-20T07:05:36;101800.66;;;18.98;100.00
12247;BME280;6186;52.022;4.692;2022-08-20T07:08:03;101807.72;;;18.99;100.00
12247;BME280;6186;52.022;4.692;2022-08-20T07:10:29;101810.28;;;19.02;100.00
12247;BME280;6186;52.022;4.692;2022-08-20T07:12:55;101814.56;;;19.06;100.00
12247;BME280;6186;52.022;4.692;2022-08-20T07:15:22;101818.78;;;19.10;100.00
12247;BME280;6186;52.022;4.692;2022-08-20T07:17:55;101822.13;;;19.15;100.00
12247;BME280;6186;52.022;4.692;2022-08-20T07:20:21;101826.34;;;19.20;100.00
12247;BME280;6186;52.022;4.692;2022-08-20T07:22:47;101825.09;;;19.27;100.00
12247;BME280;6186;52.022;4.692;2022-08-20T07:25:15;101831.94;;;19.34;100.00
12247;BME280;6186;52.022;4.692;2022-08-20T07:27:42;101827.19;;;19.41;100.00
12247;BME280;6186;52.022;4.692;2022-08-20T07:30:10;101827.72;;;19.49;100.00
12247;BME280;6186;52.022;4.692;2022-08-20T07:32:54;101834.28;;;19.60;100.00
12247;BME280;6186;52.022;4.692;2022-08-20T07:35:21;101837.41;;;19.70;100.00
12247;BME280;6186;52.022;4.692;2022-08-20T07:37:48;101835.13;;;19.80;100.00
12247;BME280;6186;52.022;4.692;2022-08-20T07:40:42;101834.56;;;19.92;100.00
12247;BME280;6186;52.022;4.692;2022-08-20T07:43:07;101838.44;;;20.03;100.00
12247;BME280;6186;52.022;4.692;2022-08-20T07:45:34;101829.72;;;20.18;100.00
12247;BME280;6186;52.022;4.692;2022-08-20T07:48:08;101837.84;;;20.34;100.00
12247;BME280;6186;52.022;4.692;2022-08-20T07:50:35;101834.31;;;20.50;100.00
12247;BME280;6186;52.022;4.692;2022-08-20T07:53:01;101825.03;;;20.57;100.00
12247;BME280;6186;52.022;4.692;2022-08-20T07:55:27;101839.38;;;20.74;100.00
12247;BME280;6186;52.022;4.692;2022-08-20T07:57:52;101841.19;;;20.90;100.00
12247;BME280;6186;52.022;4.692;2022-08-20T08:00:20;101839.63;;;21.03;100.00
12247;BME280;6186;52.022;4.692;2022-08-20T08:02:46;101846.94;;;21.17;100.00
12247;BME280;6186;52.022;4.692;2022-08-20T08:05:12;101845.34;;;21.30;100.00
12247;BME280;6186;52.022;4.692;2022-08-20T08:07:38;101846.25;;;21.46;100.00
12247;BME280;6186;52.022;4.692;2022-08-20T08:10:06;101848.25;;;21.58;100.00
12247;BME280;6186;52.022;4.692;2022-08-20T08:12:37;101851.81;;;21.74;100.00
12247;BME280;6186;52.022;4.692;2022-08-20T08:15:08;101848.56;;;21.85;100.00
12247;BME280;6186;52.022;4.692;2022-08-20T08:17:34;101843.66;;;21.93;100.00
12247;BME280;6186;52.022;4.692;2022-08-20T08:20:00;101836.72;;;22.04;100.00
12247;BME280;6186;52.022;4.692;2022-08-20T08:22:27;101850.81;;;22.23;100.00
12247;BME280;6186;52.022;4.692;2022-08-20T08:24:56;101844.56;;;22.38;100.00
12247;BME280;6186;52.022;4.692;2022-08-20T08:27:26;101848.16;;;22.53;100.00
12247;BME280;6186;52.022;4.692;2022-08-20T08:29:51;101852.75;;;22.67;100.00
12247;BME280;6186;52.022;4.692;2022-08-20T08:32:17;101846.84;;;22.76;100.00
12247;BME280;6186;52.022;4.692;2022-08-20T08:34:44;101844.47;;;22.85;100.00
12247;BME280;6186;52.022;4.692;2022-08-20T08:37:12;101846.69;;;22.93;100.00
12247;BME280;6186;52.022;4.692;2022-08-20T08:39:37;101846.78;;;23.05;100.00
12247;BME280;6186;52.022;4.692;2022-08-20T08:42:19;101860.47;;;23.16;100.00
12247;BME280;6186;52.022;4.692;2022-08-20T08:44:50;101855.34;;;23.26;100.00
12247;BME280;6186;52.022;4.692;2022-08-20T08:47:25;101858.38;;;23.35;100.00
12247;BME280;6186;52.022;4.692;2022-08-20T08:49:51;101854.53;;;23.40;100.00
12247;BME280;6186;52.022;4.692;2022-08-20T08:52:20;101849.06;;;23.41;100.00
12247;BME280;6186;52.022;4.692;2022-08-20T08:54:49;101851.88;;;23.54;100.00
12247;BME280;6186;52.022;4.692;2022-08-20T08:57:15;101856.00;;;23.59;100.00
12247;BME280;6186;52.022;4.692;2022-08-20T08:59:41;101860.69;;;23.70;100.00
12247;BME280;6186;52.022;4.692;2022-08-20T09:02:19;101856.22;;;23.97;100.00
12247;BME280;6186;52.022;4.692;2022-08-20T09:04:46;101861.69;;;24.23;100.00
12247;BME280;6186;52.022;4.692;2022-08-20T09:07:14;101861.13;;;24.45;100.00
12247;BME280;6186;52.022;4.692;2022-08-20T09:09:42;101858.91;;;24.64;100.00
12247;BME280;6186;52.022;4.692;2022-08-20T09:12:12;101860.06;;;24.87;100.00
12247;BME280;6186;52.022;4.692;2022-08-20T09:14:38;101854.72;;;25.12;100.00
12247;BME280;6186;52.022;4.692;2022-08-20T09:17:04;101852.38;;;25.45;100.00
12247;BME280;6186;52.022;4.692;2022-08-20T09:19:30;101859.59;;;25.70;100.00
12247;BME280;6186;52.022;4.692;2022-08-20T09:21:56;101854.75;;;25.62;100.00
12247;BME280;6186;52.022;4.692;2022-08-20T09:24:22;101854.34;;;25.43;100.00
12247;BME280;6186;52.022;4.692;2022-08-20T09:26:47;101862.94;;;25.36;100.00
12247;BME280;6186;52.022;4.692;2022-08-20T09:29:13;101865.53;;;25.50;100.00
12247;BME280;6186;52.022;4.692;2022-08-20T09:31:38;101855.16;;;25.69;100.00
12247;BME280;6186;52.022;4.692;2022-08-20T09:34:04;101853.38;;;26.05;100.00
12247;BME280;6186;52.022;4.692;2022-08-20T09:36:29;101860.69;;;26.40;100.00
12247;BME280;6186;52.022;4.692;2022-08-20T09:38:55;101857.81;;;26.77;100.00
12247;BME280;6186;52.022;4.692;2022-08-20T09:41:20;101861.75;;;27.19;100.00
12247;BME280;6186;52.022;4.692;2022-08-20T09:43:48;101853.44;;;27.55;100.00
12247;BME280;6186;52.022;4.692;2022-08-20T09:46:13;101848.50;;;27.94;100.00
12247;BME280;6186;52.022;4.692;2022-08-20T09:48:39;101852.66;;;28.20;100.00
12247;BME280;6186;52.022;4.692;2022-08-20T09:51:04;101837.84;;;28.35;100.00
12247;BME280;6186;52.022;4.692;2022-08-20T09:53:30;101845.06;;;28.77;100.00
12247;BME280;6186;52.022;4.692;2022-08-20T09:55:56;101843.03;;;29.11;100.00
12247;BME280;6186;52.022;4.692;2022-08-20T09:58:51;101847.97;;;29.47;100.00
12247;BME280;6186;52.022;4.692;2022-08-20T10:01:19;101829.63;;;29.69;100.00
12247;BME280;6186;52.022;4.692;2022-08-20T10:03:46;101834.44;;;29.96;100.00
12247;BME280;6186;52.022;4.692;2022-08-20T10:06:13;101824.19;;;30.00;100.00
12247;BME280;6186;52.022;4.692;2022-08-20T10:08:41;101829.28;;;29.84;100.00
12247;BME280;6186;52.022;4.692;2022-08-20T10:11:09;101824.78;;;29.33;100.00
12247;BME280;6186;52.022;4.692;2022-08-20T10:13:35;101838.66;;;28.78;100.00
12247;BME280;6186;52.022;4.692;2022-08-20T10:16:00;101845.28;;;28.11;100.00
12247;BME280;6186;52.022;4.692;2022-08-20T10:18:26;101839.94;;;27.55;100.00
12247;BME280;6186;52.022;4.692;2022-08-20T10:20:53;101843.53;;;27.10;100.00
12247;BME280;6186;52.022;4.692;2022-08-20T10:23:18;101827.56;;;26.72;100.00
12247;BME280;6186;52.022;4.692;2022-08-20T10:25:44;101829.81;;;26.55;100.00
12247;BME280;6186;52.022;4.692;2022-08-20T10:28:09;101835.34;;;26.77;100.00
12247;BME280;6186;52.022;4.692;2022-08-20T10:30:35;101831.78;;;27.44;100.00
12247;BME280;6186;52.022;4.692;2022-08-20T10:33:00;101837.84;;;28.24;100.00
12247;BME280;6186;52.022;4.692;2022-08-20T10:35:26;101828.34;;;28.72;100.00
12247;BME280;6186;52.022;4.692;2022-08-20T10:37:51;101826.03;;;28.88;100.00
12247;BME280;6186;52.022;4.692;2022-08-20T10:40:19;101828.84;;;29.18;100.00
12247;BME280;6186;52.022;4.692;2022-08-20T10:42:45;101825.50;;;29.65;100.00
12247;BME280;6186;52.022;4.692;2022-08-20T10:45:12;101813.88;;;29.94;100.00
